sensor_id;sensor_type;location;lat;lon;timestamp;temperature;humidity
37518;DHT22;23366;52.498;13.446;2023-04-24T00:00:33;12.30;99.90
37518;DHT22;23366;52.498;13.446;2023-04-24T00:02:58;12.30;99.90
37518;DHT22;23366;52.498;13.446;2023-04-24T00:05:24;12.30;99.90
37518;DHT22;23366;52.498;13.446;2023-04-24T00:07:50;12.20;99.90
37518;DHT22;23366;52.498;13.446;2023-04-24T00:10:19;12.20;99.90
37518;DHT22;23366;52.498;13.446;2023-04-24T00:12:45;12.30;99.90
37518;DHT22;23366;52.498;13.446;2023-04-24T00:15:11;12.20;99.90
37518;DHT22;23366;52.498;13.446;2023-04-24T00:17:37;12.20;99.90
37518;DHT22;23366;52.498;13.446;2023-04-24T00:20:03;12.20;99.90
37518;DHT22;23366;52.498;13.446;2023-04-24T00:22:30;12.20;99.90
37518;DHT22;23366;52.498;13.446;2023-04-24T00:24:56;12.20;99.90
37518;DHT22;23366;52.498;13.446;2023-04-24T00:27:21;12.20;99.90
37518;DHT22;23366;52.498;13.446;2023-04-24T00:29:48;12.20;99.90
37518;DHT22;23366;52.498;13.446;2023-04-24T00:32:14;12.20;99.90
37518;DHT22;23366;52.498;13.446;2023-04-24T00:34:40;12.20;99.90
37518;DHT22;23366;52.498;13.446;2023-04-24T00:37:05;12.20;99.90
37518;DHT22;23366;52.498;13.446;2023-04-24T00:39:31;12.10;99.90
37518;DHT22;23366;52.498;13.446;2023-04-24T00:41:57;12.10;99.90
37518;DHT22;23366;52.498;13.446;2023-04-24T00:44:23;12.10;99.90
37518;DHT22;23366;52.498;13.446;2023-04-24T00:46:49;12.10;99.90
37518;DHT22;23366;52.498;13.446;2023-04-24T00:49:21;12.00;99.90
37518;DHT22;23366;52.498;13.446;2023-04-24T00:51:46;12.10;99.90
37518;DHT22;23366;52.498;13.446;2023-04-24T00:54:15;12.00;99.90
37518;DHT22;23366;52.498;13.446;2023-04-24T00:56:42;11.90;99.90
37518;DHT22;23366;52.498;13.446;2023-04-24T00:59:08;12.00;99.90
37518;DHT22;23366;52.498;13.446;2023-04-24T01:01:33;12.00;99.90
37518;DHT22;23366;52.498;13.446;2023-04-24T01:04:00;12.00;99.90
37518;DHT22;23366;52.498;13.446;2023-04-24T01:06:28;11.90;99.90
37518;DHT22;23366;52.498;13.446;2023-04-24T01:08:54;11.90;99.90
37518;DHT22;23366;52.498;13.446;2023-04-24T01:11:21;11.90;99.90
37518;DHT22;23366;52.498;13.446;2023-04-24T01:13:47;11.90;99.90
37518;DHT22;23366;52.498;13.446;2023-04-24T01:16:14;11.80;99.90
37518;DHT22;23366;52.498;13.446;2023-04-24T01:18:40;11.80;99.90
37518;DHT22;23366;52.498;13.446;2023-04-24T01:21:08;11.80;99.90
37518;DHT22;23366;52.498;13.446;2023-04-24T01:23:33;11.80;99.90
37518;DHT22;23366;52.498;13.446;2023-04-24T01:26:00;11.80;99.90
37518;DHT22;23366;52.498;13.446;2023-04-24T01:28:25;11.80;99.90
37518;DHT22;23366;52.498;13.446;2023-04-24T01:30:52;11.80;99.90
37518;DHT22;23366;52.498;13.446;2023-04-24T01:33:18;11.70;99.90
37518;DHT22;23366;52.498;13.446;2023-04-24T01:35:43;11.70;99.90
37518;DHT22;23366;52.498;13.446;2023-04-24T01:38:09;11.70;99.90
37518;DHT22;23366;52.498;13.446;2023-04-24T01:40:34;11.70;99.90
37518;DHT22;23366;52.498;13.446;2023-04-24T01:43:00;11.70;99.90
37518;DHT22;23366;52.498;13.446;2023-04-24T01:45:26;11.70;99.90
37518;DHT22;23366;52.498;13.446;2023-04-24T01:47:51;11.70;99.90
37518;DHT22;23366;52.498;13.446;2023-04-24T01:50:17;11.70;99.90
37518;DHT22;23366;52.498;13.446;2023-04-24T01:52:43;11.70;99.90
37518;DHT22;23366;52.498;13.446;2023-04-24T01:55:09;11.70;99.90
37518;DHT22;23366;52.498;13.446;2023-04-24T01:57:35;11.70;99.90
37518;DHT22;23366;52.498;13.446;2023-04-24T02:00:01;11.60;99.90
37518;DHT22;23366;52.498;13.446;2023-04-24T02:02:29;11.60;99.90
37518;DHT22;23366;52.498;13.446;2023-04-24T02:04:55;11.60;99.90
37518;DHT22;23366;52.498;13.446;2023-04-24T02:07:20;11.60;99.90
37518;DHT22;23366;52.498;13.446;2023-04-24T02:09:46;11.60;99.90
37518;DHT22;23366;52.498;13.446;2023-04-24T02:12:12;11.60;99.90
37518;DHT22;23366;52.498;13.446;2023-04-24T02:14:37;11.70;99.90
37518;DHT22;23366;52.498;13.446;2023-04-24T02:17:03;11.70;99.90
37518;DHT22;23366;52.498;13.446;2023-04-24T02:19:28;11.70;99.90
37518;DHT22;23366;52.498;13.446;2023-04-24T02:21:54;11.70;99.90
37518;DHT22;23366;52.498;13.446;2023-04-24T02:24:19;11.70;99.90
37518;DHT22;23366;52.498;13.446;2023-04-24T02:26:45;11.70;99.90
37518;DHT22;23366;52.498;13.446;2023-04-24T02:29:10;11.80;99.90
37518;DHT22;23366;52.498;13.446;2023-04-24T02:31:36;11.80;99.90
37518;DHT22;23366;52.498;13.446;2023-04-24T02:34:01;11.80;99.90
37518;DHT22;23366;52.498;13.446;2023-04-24T02:36:27;11.80;99.90
37518;DHT22;23366;52.498;13.446;2023-04-24T02:38:52;11.80;99.90
37518;DHT22;23366;52.498;13.446;2023-04-24T02:41:18;11.90;99.90
37518;DHT22;23366;52.498;13.446;2023-04-24T02:43:43;11.90;99.90
37518;DHT22;23366;52.498;13.446;2023-04-24T02:46:09;11.90;99.90
37518;DHT22;23366;52.498;13.446;2023-04-24T02:48:34;11.90;99.90
37518;DHT22;23366;52.498;13.446;2023-04-24T02:51:00;11.80;99.90
37518;DHT22;23366;52.498;13.446;2023-04-24T02:53:25;11.80;99.90
37518;DHT22;23366;52.498;13.446;2023-04-24T02:55:51;11.90;99.90
37518;DHT22;23366;52.498;13.446;2023-04-24T02:58:16;11.80;99.90
37518;DHT22;23366;52.498;13.446;2023-04-24T03:00:42;11.90;99.90
37518;DHT22;23366;52.498;13.446;2023-04-24T03:03:08;11.90;99.90
37518;DHT22;23366;52.498;13.446;2023-04-24T03:05:34;11.90;99.90
37518;DHT22;23366;52.498;13.446;2023-04-24T03:07:59;11.90;99.90
37518;DHT22;23366;52.498;13.446;2023-04-24T03:10:25;12.00;99.90
37518;DHT22;23366;52.498;13.446;2023-04-24T03:12:50;12.00;99.90
37518;DHT22;23366;52.498;13.446;2023-04-24T03:15:16;12.00;99.90
37518;DHT22;23366;52.498;13.446;2023-04-24T03:17:41;12.00;99.90
37518;DHT22;23366;52.498;13.446;2023-04-24T03:20:08;12.00;99.90
37518;DHT22;23366;52.498;13.446;2023-04-24T03:22:33;12.00;99.90
37518;DHT22;23366;52.498;13.446;2023-04-24T03:24:59;12.10;99.90
37518;DHT22;23366;52.498;13.446;2023-04-24T03:27:25;12.10;99.90
37518;DHT22;23366;52.498;13.446;2023-04-24T03:29:50;12.10;99.90
37518;DHT22;23366;52.498;13.446;2023-04-24T03:32:21;12.20;99.90
37518;DHT22;23366;52.498;13.446;2023-04-24T03:34:48;12.20;99.90
37518;DHT22;23366;52.498;13.446;2023-04-24T03:37:13;12.20;99.90
37518;DHT22;23366;52.498;13.446;2023-04-24T03:39:39;12.20;99.90
37518;DHT22;23366;52.498;13.446;2023-04-24T03:42:04;12.30;99.90
37518;DHT22;23366;52.498;13.446;2023-04-24T03:44:30;12.30;99.90
37518;DHT22;23366;52.498;13.446;2023-04-24T03:46:55;12.30;99.90
37518;DHT22;23366;52.498;13.446;2023-04-24T03:49:21;12.30;99.90
37518;DHT22;23366;52.498;13.446;2023-04-24T03:51:47;12.30;99.90
37518;DHT22;23366;52.498;13.446;2023-04-24T03:54:12;12.40;99.90
37518;DHT22;23366;52.498;13.446;2023-04-24T03:56:38;12.40;99.90
37518;DHT22;23366;52.498;13.446;2023-04-24T03:59:04;12.40;99.90
37518;DHT22;23366;52.498;13.446;2023-04-24T04:01:29;12.50;99.90
37518;DHT22;23366;52.498;13.446;2023-04-24T04:03:55;12.40;99.90
37518;DHT22;23366;52.498;13.446;2023-04-24T04:06:21;12.40;99.90
37518;DHT22;23366;52.498;13.446;2023-04-24T04:08:47;12.40;99.90
37518;DHT22;23366;52.498;13.446;2023-04-24T04:11:13;12.40;99.90
37518;DHT22;23366;52.498;13.446;2023-04-24T04:13:38;12.50;99.90
37518;DHT22;23366;52.498;13.446;2023-04-24T04:16:04;12.50;99.90
37518;DHT22;23366;52.498;13.446;2023-04-24T04:18:29;12.50;99.90
37518;DHT22;23366;52.498;13.446;2023-04-24T04:20:55;12.50;99.90
37518;DHT22;23366;52.498;13.446;2023-04-24T04:23:22;12.50;99.90
37518;DHT22;23366;52.498;13.446;2023-04-24T04:25:48;12.60;99.90
37518;DHT22;23366;52.498;13.446;2023-04-24T04:28:13;12.50;99.90
37518;DHT22;23366;52.498;13.446;2023-04-24T04:30:38;12.50;99.90
37518;DHT22;23366;52.498;13.446;2023-04-24T04:33:05;12.50;99.90
37518;DHT22;23366;52.498;13.446;2023-04-24T04:35:30;12.50;99.90
37518;DHT22;23366;52.498;13.446;2023-04-24T04:37:56;12.60;99.90
37518;DHT22;23366;52.498;13.446;2023-04-24T04:40:24;12.50;99.90
37518;DHT22;23366;52.498;13.446;2023-04-24T04:42:50;12.60;99.90
37518;DHT22;23366;52.498;13.446;2023-04-24T04:45:18;12.50;99.90
37518;DHT22;23366;52.498;13.446;2023-04-24T04:47:43;12.60;99.90
37518;DHT22;23366;52.498;13.446;2023-04-24T04:50:09;12.60;99.90
37518;DHT22;23366;52.498;13.446;2023-04-24T04:52:35;12.60;99.90
37518;DHT22;23366;52.498;13.446;2023-04-24T04:55:01;12.60;99.90
37518;DHT22;23366;52.498;13.446;2023-04-24T04:57:27;12.60;99.90
37518;DHT22;23366;52.498;13.446;2023-04-24T04:59:52;12.70;99.90
37518;DHT22;23366;52.498;13.446;2023-04-24T05:02:18;12.80;99.90
37518;DHT22;23366;52.498;13.446;2023-04-24T05:04:43;12.80;99.90
37518;DHT22;23366;52.498;13.446;2023-04-24T05:07:08;12.80;99.90
37518;DHT22;23366;52.498;13.446;2023-04-24T05:09:34;12.90;99.90
37518;DHT22;23366;52.498;13.446;2023-04-24T05:12:00;12.90;99.90
37518;DHT22;23366;52.498;13.446;2023-04-24T05:14:25;13.10;99.90
37518;DHT22;23366;52.498;13.446;2023-04-24T05:16:51;13.10;99.90
37518;DHT22;23366;52.498;13.446;2023-04-24T05:19:16;13.30;99.90
37518;DHT22;23366;52.498;13.446;2023-04-24T05:21:41;13.40;99.90
37518;DHT22;23366;52.498;13.446;2023-04-24T05:24:07;13.50;99.90
37518;DHT22;23366;52.498;13.446;2023-04-24T05:26:33;13.60;99.90
37518;DHT22;23366;52.498;13.446;2023-04-24T05:28:58;13.70;99.90
37518;DHT22;23366;52.498;13.446;2023-04-24T05:31:24;14.00;99.90
37518;DHT22;23366;52.498;13.446;2023-04-24T05:33:50;14.10;99.90
37518;DHT22;23366;52.498;13.446;2023-04-24T05:36:16;14.20;99.90
37518;DHT22;23366;52.498;13.446;2023-04-24T05:38:41;14.80;99.90
37518;DHT22;23366;52.498;13.446;2023-04-24T05:41:06;15.10;99.90
37518;DHT22;23366;52.498;13.446;2023-04-24T05:43:32;15.60;99.90
37518;DHT22;23366;52.498;13.446;2023-04-24T05:45:57;15.90;99.90
37518;DHT22;23366;52.498;13.446;2023-04-24T05:48:23;16.40;99.90
37518;DHT22;23366;52.498;13.446;2023-04-24T05:50:48;17.30;99.90
37518;DHT22;23366;52.498;13.446;2023-04-24T05:53:14;17.90;99.90
37518;DHT22;23366;52.498;13.446;2023-04-24T05:55:39;18.40;99.90
37518;DHT22;23366;52.498;13.446;2023-04-24T05:58:05;17.80;99.90
37518;DHT22;23366;52.498;13.446;2023-04-24T06:00:31;17.90;99.90
37518;DHT22;23366;52.498;13.446;2023-04-24T06:02:57;17.90;99.90
37518;DHT22;23366;52.498;13.446;2023-04-24T06:05:24;18.00;99.90
37518;DHT22;23366;52.498;13.446;2023-04-24T06:07:49;18.00;99.90
37518;DHT22;23366;52.498;13.446;2023-04-24T06:10:15;18.60;99.90
37518;DHT22;23366;52.498;13.446;2023-04-24T06:12:40;19.60;99.90
37518;DHT22;23366;52.498;13.446;2023-04-24T06:15:06;20.10;99.90
37518;DHT22;23366;52.498;13.446;2023-04-24T06:17:32;20.60;99.90
37518;DHT22;23366;52.498;13.446;2023-04-24T06:19:57;22.20;98.10
37518;DHT22;23366;52.498;13.446;2023-04-24T06:22:23;22.60;95.30
37518;DHT22;23366;52.498;13.446;2023-04-24T06:24:48;23.60;93.10
37518;DHT22;23366;52.498;13.446;2023-04-24T06:27:14;24.70;91.10
37518;DHT22;23366;52.498;13.446;2023-04-24T06:29:39;25.30;87.20
37518;DHT22;23366;52.498;13.446;2023-04-24T06:32:05;24.60;83.70
37518;DHT22;23366;52.498;13.446;2023-04-24T06:34:30;23.80;86.30
37518;DHT22;23366;52.498;13.446;2023-04-24T06:36:58;22.60;88.70
37518;DHT22;23366;52.498;13.446;2023-04-24T06:39:23;22.40;90.40
37518;DHT22;23366;52.498;13.446;2023-04-24T06:42:20;22.20;90.30
37518;DHT22;23366;52.498;13.446;2023-04-24T06:44:47;23.60;89.20
37518;DHT22;23366;52.498;13.446;2023-04-24T06:47:15;24.20;86.20
37518;DHT22;23366;52.498;13.446;2023-04-24T06:49:41;24.60;83.20
37518;DHT22;23366;52.498;13.446;2023-04-24T06:52:07;25.10;82.10
37518;DHT22;23366;52.498;13.446;2023-04-24T06:57:31;25.60;79.40
37518;DHT22;23366;52.498;13.446;2023-04-24T06:59:57;26.80;77.20
37518;DHT22;23366;52.498;13.446;2023-04-24T07:02:23;27.80;74.40
37518;DHT22;23366;52.498;13.446;2023-04-24T07:04:48;28.00;69.80
37518;DHT22;23366;52.498;13.446;2023-04-24T07:07:14;29.70;68.90
37518;DHT22;23366;52.498;13.446;2023-04-24T07:09:40;31.10;64.50
37518;DHT22;23366;52.498;13.446;2023-04-24T07:12:11;31.00;62.20
37518;DHT22;23366;52.498;13.446;2023-04-24T07:14:39;31.00;60.20
37518;DHT22;23366;52.498;13.446;2023-04-24T07:17:05;31.10;59.80
37518;DHT22;23366;52.498;13.446;2023-04-24T07:19:32;31.50;58.50
37518;DHT22;23366;52.498;13.446;2023-04-24T07:21:58;31.10;57.70
37518;DHT22;23366;52.498;13.446;2023-04-24T07:24:25;30.50;58.10
37518;DHT22;23366;52.498;13.446;2023-04-24T07:26:51;30.40;57.90
37518;DHT22;23366;52.498;13.446;2023-04-24T07:29:17;30.60;57.70
37518;DHT22;23366;52.498;13.446;2023-04-24T07:31:43;29.80;57.90
37518;DHT22;23366;52.498;13.446;2023-04-24T07:34:08;28.30;59.20
37518;DHT22;23366;52.498;13.446;2023-04-24T07:36:34;27.10;61.20
37518;DHT22;23366;52.498;13.446;2023-04-24T07:38:59;25.90;63.10
37518;DHT22;23366;52.498;13.446;2023-04-24T07:41:25;24.50;65.00
37518;DHT22;23366;52.498;13.446;2023-04-24T07:43:50;23.80;66.60
37518;DHT22;23366;52.498;13.446;2023-04-24T07:46:16;23.10;68.70
37518;DHT22;23366;52.498;13.446;2023-04-24T07:48:57;23.60;69.50
37518;DHT22;23366;52.498;13.446;2023-04-24T07:51:26;25.40;65.30
37518;DHT22;23366;52.498;13.446;2023-04-24T07:53:55;28.40;61.20
37518;DHT22;23366;52.498;13.446;2023-04-24T07:56:21;30.80;57.10
37518;DHT22;23366;52.498;13.446;2023-04-24T07:58:49;31.20;53.90
37518;DHT22;23366;52.498;13.446;2023-04-24T08:01:15;31.50;53.30
37518;DHT22;23366;52.498;13.446;2023-04-24T08:03:41;32.20;52.90
37518;DHT22;23366;52.498;13.446;2023-04-24T08:06:06;32.50;51.90
37518;DHT22;23366;52.498;13.446;2023-04-24T08:08:35;32.50;51.70
37518;DHT22;23366;52.498;13.446;2023-04-24T08:11:01;33.20;51.10
37518;DHT22;23366;52.498;13.446;2023-04-24T08:13:27;33.30;49.50
37518;DHT22;23366;52.498;13.446;2023-04-24T08:15:52;33.30;48.80
37518;DHT22;23366;52.498;13.446;2023-04-24T08:18:18;32.40;49.30
37518;DHT22;23366;52.498;13.446;2023-04-24T08:20:44;31.50;49.50
37518;DHT22;23366;52.498;13.446;2023-04-24T08:23:10;30.30;50.40
37518;DHT22;23366;52.498;13.446;2023-04-24T08:25:39;29.10;52.20
37518;DHT22;23366;52.498;13.446;2023-04-24T08:28:06;27.60;55.60
37518;DHT22;23366;52.498;13.446;2023-04-24T08:30:33;26.80;58.20
37518;DHT22;23366;52.498;13.446;2023-04-24T08:33:02;26.10;59.10
37518;DHT22;23366;52.498;13.446;2023-04-24T08:35:27;26.50;58.30
37518;DHT22;23366;52.498;13.446;2023-04-24T08:37:53;27.00;58.50
37518;DHT22;23366;52.498;13.446;2023-04-24T08:40:23;26.90;58.80
37518;DHT22;23366;52.498;13.446;2023-04-24T08:43:09;26.30;58.40
37518;DHT22;23366;52.498;13.446;2023-04-24T08:45:56;26.80;58.10
37518;DHT22;23366;52.498;13.446;2023-04-24T08:48:22;25.70;60.00
37518;DHT22;23366;52.498;13.446;2023-04-24T08:50:50;25.50;60.50
37518;DHT22;23366;52.498;13.446;2023-04-24T08:53:30;25.80;60.60
37518;DHT22;23366;52.498;13.446;2023-04-24T08:55:58;26.20;59.90
37518;DHT22;23366;52.498;13.446;2023-04-24T08:58:33;26.70;57.80
37518;DHT22;23366;52.498;13.446;2023-04-24T09:01:04;26.80;57.70
37518;DHT22;23366;52.498;13.446;2023-04-24T09:03:38;27.30;57.00
37518;DHT22;23366;52.498;13.446;2023-04-24T09:06:06;26.90;57.30
37518;DHT22;23366;52.498;13.446;2023-04-24T09:08:36;26.30;58.40
37518;DHT22;23366;52.498;13.446;2023-04-24T09:11:03;25.80;59.30
37518;DHT22;23366;52.498;13.446;2023-04-24T09:16:13;24.60;60.20
37518;DHT22;23366;52.498;13.446;2023-04-24T09:18:39;24.30;62.10
37518;DHT22;23366;52.498;13.446;2023-04-24T09:21:09;23.50;63.50
37518;DHT22;23366;52.498;13.446;2023-04-24T09:23:38;22.60;65.20
37518;DHT22;23366;52.498;13.446;2023-04-24T09:26:15;22.00;66.50
37518;DHT22;23366;52.498;13.446;2023-04-24T09:28:41;21.20;68.20
37518;DHT22;23366;52.498;13.446;2023-04-24T09:31:15;20.60;70.00
37518;DHT22;23366;52.498;13.446;2023-04-24T09:34:03;20.40;71.60
37518;DHT22;23366;52.498;13.446;2023-04-24T09:36:32;20.20;72.00
37518;DHT22;23366;52.498;13.446;2023-04-24T09:39:00;20.00;72.50
37518;DHT22;23366;52.498;13.446;2023-04-24T09:41:31;20.10;73.20
37518;DHT22;23366;52.498;13.446;2023-04-24T09:44:12;19.80;75.60
37518;DHT22;23366;52.498;13.446;2023-04-24T09:46:41;19.70;76.70
37518;DHT22;23366;52.498;13.446;2023-04-24T09:49:15;19.30;77.40
37518;DHT22;23366;52.498;13.446;2023-04-24T09:51:44;19.10;79.00
37518;DHT22;23366;52.498;13.446;2023-04-24T09:54:28;18.80;79.70
37518;DHT22;23366;52.498;13.446;2023-04-24T09:56:55;18.80;80.80
37518;DHT22;23366;52.498;13.446;2023-04-24T09:59:24;19.00;80.60
37518;DHT22;23366;52.498;13.446;2023-04-24T10:01:49;19.00;81.00
37518;DHT22;23366;52.498;13.446;2023-04-24T10:04:22;19.10;80.90
37518;DHT22;23366;52.498;13.446;2023-04-24T10:06:51;19.50;78.80
37518;DHT22;23366;52.498;13.446;2023-04-24T10:09:20;19.60;78.50
37518;DHT22;23366;52.498;13.446;2023-04-24T10:11:48;19.90;77.50
37518;DHT22;23366;52.498;13.446;2023-04-24T10:14:24;20.10;77.20
37518;DHT22;23366;52.498;13.446;2023-04-24T10:16:53;20.30;77.40
37518;DHT22;23366;52.498;13.446;2023-04-24T10:19:19;20.60;77.50
37518;DHT22;23366;52.498;13.446;2023-04-24T10:21:46;20.90;76.20
37518;DHT22;23366;52.498;13.446;2023-04-24T10:24:16;21.40;75.60
37518;DHT22;23366;52.498;13.446;2023-04-24T10:26:55;21.20;74.80
37518;DHT22;23366;52.498;13.446;2023-04-24T10:29:22;21.50;73.30
37518;DHT22;23366;52.498;13.446;2023-04-24T10:32:00;21.30;73.30
37518;DHT22;23366;52.498;13.446;2023-04-24T10:34:25;21.10;73.60
37518;DHT22;23366;52.498;13.446;2023-04-24T10:36:52;21.20;74.60
37518;DHT22;23366;52.498;13.446;2023-04-24T10:39:21;21.10;74.20
37518;DHT22;23366;52.498;13.446;2023-04-24T10:42:20;21.30;73.70
37518;DHT22;23366;52.498;13.446;2023-04-24T10:44:49;20.90;74.00
37518;DHT22;23366;52.498;13.446;2023-04-24T10:47:41;20.70;74.90
37518;DHT22;23366;52.498;13.446;2023-04-24T10:50:20;20.50;74.50
37518;DHT22;23366;52.498;13.446;2023-04-24T10:52:53;20.40;74.50
37518;DHT22;23366;52.498;13.446;2023-04-24T10:55:39;20.20;75.30
37518;DHT22;23366;52.498;13.446;2023-04-24T10:58:05;19.90;75.80
37518;DHT22;23366;52.498;13.446;2023-04-24T11:00:30;19.70;77.70
37518;DHT22;23366;52.498;13.446;2023-04-24T11:02:56;19.50;79.80
37518;DHT22;23366;52.498;13.446;2023-04-24T11:05:49;19.40;80.20
37518;DHT22;23366;52.498;13.446;2023-04-24T11:11:16;19.20;79.60
37518;DHT22;23366;52.498;13.446;2023-04-24T11:16:42;19.50;79.10
37518;DHT22;23366;52.498;13.446;2023-04-24T11:19:09;19.90;79.50
37518;DHT22;23366;52.498;13.446;2023-04-24T11:21:47;20.30;77.50
37518;DHT22;23366;52.498;13.446;2023-04-24T11:24:29;20.50;78.40
37518;DHT22;23366;52.498;13.446;2023-04-24T11:32:33;20.20;77.00
37518;DHT22;23366;52.498;13.446;2023-04-24T11:35:06;19.90;77.90
37518;DHT22;23366;52.498;13.446;2023-04-24T11:37:37;19.50;78.60
37518;DHT22;23366;52.498;13.446;2023-04-24T11:40:04;19.10;89.40
37518;DHT22;23366;52.498;13.446;2023-04-24T11:42:41;18.30;98.60
37518;DHT22;23366;52.498;13.446;2023-04-24T11:45:23;17.50;99.90
37518;DHT22;23366;52.498;13.446;2023-04-24T11:47:49;16.90;99.90
37518;DHT22;23366;52.498;13.446;2023-04-24T11:50:16;16.50;99.90
37518;DHT22;23366;52.498;13.446;2023-04-24T11:52:47;16.50;99.90
37518;DHT22;23366;52.498;13.446;2023-04-24T11:57:47;16.70;99.90
37518;DHT22;23366;52.498;13.446;2023-04-24T12:02:42;16.90;99.90
37518;DHT22;23366;52.498;13.446;2023-04-24T12:05:08;17.00;99.90
37518;DHT22;23366;52.498;13.446;2023-04-24T12:07:41;17.10;99.90
37518;DHT22;23366;52.498;13.446;2023-04-24T12:10:10;17.30;99.90
37518;DHT22;23366;52.498;13.446;2023-04-24T12:12:36;17.30;99.90
37518;DHT22;23366;52.498;13.446;2023-04-24T12:15:06;17.50;99.90
37518;DHT22;23366;52.498;13.446;2023-04-24T12:24:24;17.80;99.90
37518;DHT22;23366;52.498;13.446;2023-04-24T12:36:36;18.30;99.90
37518;DHT22;23366;52.498;13.446;2023-04-24T12:39:02;18.20;99.90
37518;DHT22;23366;52.498;13.446;2023-04-24T12:41:36;18.30;99.90
37518;DHT22;23366;52.498;13.446;2023-04-24T12:44:02;18.40;99.90
37518;DHT22;23366;52.498;13.446;2023-04-24T12:46:54;18.50;98.00
37518;DHT22;23366;52.498;13.446;2023-04-24T12:49:19;18.50;95.20
37518;DHT22;23366;52.498;13.446;2023-04-24T12:51:45;18.60;93.70
37518;DHT22;23366;52.498;13.446;2023-04-24T12:54:13;18.60;92.00
37518;DHT22;23366;52.498;13.446;2023-04-24T12:56:39;18.60;90.90
37518;DHT22;23366;52.498;13.446;2023-04-24T12:59:07;18.50;90.10
37518;DHT22;23366;52.498;13.446;2023-04-24T13:01:32;18.80;90.30
37518;DHT22;23366;52.498;13.446;2023-04-24T13:04:06;19.00;88.70
37518;DHT22;23366;52.498;13.446;2023-04-24T13:06:32;19.20;86.50
37518;DHT22;23366;52.498;13.446;2023-04-24T13:08:57;19.40;84.10
37518;DHT22;23366;52.498;13.446;2023-04-24T13:11:23;19.60;85.00
37518;DHT22;23366;52.498;13.446;2023-04-24T13:13:50;19.70;83.30
37518;DHT22;23366;52.498;13.446;2023-04-24T13:16:15;19.80;82.80
37518;DHT22;23366;52.498;13.446;2023-04-24T13:18:41;20.00;81.20
37518;DHT22;23366;52.498;13.446;2023-04-24T13:21:07;19.90;77.80
37518;DHT22;23366;52.498;13.446;2023-04-24T13:23:32;20.10;77.00
37518;DHT22;23366;52.498;13.446;2023-04-24T13:26:04;20.20;73.40
37518;DHT22;23366;52.498;13.446;2023-04-24T13:28:35;20.10;72.50
37518;DHT22;23366;52.498;13.446;2023-04-24T13:31:01;19.90;73.00
37518;DHT22;23366;52.498;13.446;2023-04-24T13:33:29;19.70;72.10
37518;DHT22;23366;52.498;13.446;2023-04-24T13:35:55;19.60;72.10
37518;DHT22;23366;52.498;13.446;2023-04-24T13:38:35;19.60;72.70
37518;DHT22;23366;52.498;13.446;2023-04-24T13:41:01;19.50;70.60
37518;DHT22;23366;52.498;13.446;2023-04-24T13:43:28;19.40;70.20
37518;DHT22;23366;52.498;13.446;2023-04-24T13:45:55;19.20;70.50
37518;DHT22;23366;52.498;13.446;2023-04-24T13:48:20;19.20;70.60
37518;DHT22;23366;52.498;13.446;2023-04-24T13:50:46;19.20;70.60
37518;DHT22;23366;52.498;13.446;2023-04-24T13:53:13;19.30;71.20
37518;DHT22;23366;52.498;13.446;2023-04-24T13:55:39;19.30;70.00
37518;DHT22;23366;52.498;13.446;2023-04-24T13:58:04;19.10;70.20
37518;DHT22;23366;52.498;13.446;2023-04-24T14:00:30;18.90;70.50
37518;DHT22;23366;52.498;13.446;2023-04-24T14:02:56;18.90;70.30
37518;DHT22;23366;52.498;13.446;2023-04-24T14:05:22;18.90;71.00
37518;DHT22;23366;52.498;13.446;2023-04-24T14:07:47;18.90;71.50
37518;DHT22;23366;52.498;13.446;2023-04-24T14:10:13;19.00;71.80
37518;DHT22;23366;52.498;13.446;2023-04-24T14:12:38;19.10;71.90
37518;DHT22;23366;52.498;13.446;2023-04-24T14:15:04;19.10;71.20
37518;DHT22;23366;52.498;13.446;2023-04-24T14:17:30;19.00;70.90
37518;DHT22;23366;52.498;13.446;2023-04-24T14:19:56;19.00;70.90
37518;DHT22;23366;52.498;13.446;2023-04-24T14:22:22;18.90;71.60
37518;DHT22;23366;52.498;13.446;2023-04-24T14:24:47;18.80;71.00
37518;DHT22;23366;52.498;13.446;2023-04-24T14:27:13;18.60;72.00
37518;DHT22;23366;52.498;13.446;2023-04-24T14:29:39;18.60;71.70
37518;DHT22;23366;52.498;13.446;2023-04-24T14:32:04;18.60;72.10
37518;DHT22;23366;52.498;13.446;2023-04-24T14:34:30;18.50;71.10
37518;DHT22;23366;52.498;13.446;2023-04-24T14:36:55;18.40;71.90
37518;DHT22;23366;52.498;13.446;2023-04-24T14:39:21;18.50;71.50
37518;DHT22;23366;52.498;13.446;2023-04-24T14:41:46;18.50;70.10
37518;DHT22;23366;52.498;13.446;2023-04-24T14:44:12;18.60;69.20
37518;DHT22;23366;52.498;13.446;2023-04-24T14:46:37;18.70;69.70
37518;DHT22;23366;52.498;13.446;2023-04-24T14:49:14;18.70;69.90
37518;DHT22;23366;52.498;13.446;2023-04-24T14:51:40;18.70;70.80
37518;DHT22;23366;52.498;13.446;2023-04-24T14:54:06;18.60;70.70
37518;DHT22;23366;52.498;13.446;2023-04-24T14:56:37;18.60;70.70
37518;DHT22;23366;52.498;13.446;2023-04-24T14:59:09;18.60;70.80
37518;DHT22;23366;52.498;13.446;2023-04-24T15:01:35;18.60;71.50
37518;DHT22;23366;52.498;13.446;2023-04-24T15:04:08;18.60;70.80
37518;DHT22;23366;52.498;13.446;2023-04-24T15:06:36;18.40;71.40
37518;DHT22;23366;52.498;13.446;2023-04-24T15:09:02;18.40;71.40
37518;DHT22;23366;52.498;13.446;2023-04-24T15:11:28;18.30;72.30
37518;DHT22;23366;52.498;13.446;2023-04-24T15:13:54;18.20;72.30
37518;DHT22;23366;52.498;13.446;2023-04-24T15:16:20;18.00;72.30
37518;DHT22;23366;52.498;13.446;2023-04-24T15:18:45;17.90;73.50
37518;DHT22;23366;52.498;13.446;2023-04-24T15:21:11;17.90;73.10
37518;DHT22;23366;52.498;13.446;2023-04-24T15:23:38;17.80;73.50
37518;DHT22;23366;52.498;13.446;2023-04-24T15:26:03;17.90;73.20
37518;DHT22;23366;52.498;13.446;2023-04-24T15:28:29;17.80;72.80
37518;DHT22;23366;52.498;13.446;2023-04-24T15:30:57;17.80;72.40
37518;DHT22;23366;52.498;13.446;2023-04-24T15:33:25;17.70;72.30
37518;DHT22;23366;52.498;13.446;2023-04-24T15:35:51;17.70;72.00
37518;DHT22;23366;52.498;13.446;2023-04-24T15:38:19;17.70;72.30
37518;DHT22;23366;52.498;13.446;2023-04-24T15:40:45;17.70;72.20
37518;DHT22;23366;52.498;13.446;2023-04-24T15:43:10;17.50;72.80
37518;DHT22;23366;52.498;13.446;2023-04-24T15:45:36;17.30;73.50
37518;DHT22;23366;52.498;13.446;2023-04-24T15:48:01;17.10;74.20
37518;DHT22;23366;52.498;13.446;2023-04-24T15:50:27;17.00;74.30
37518;DHT22;23366;52.498;13.446;2023-04-24T15:52:53;17.00;74.70
37518;DHT22;23366;52.498;13.446;2023-04-24T15:55:18;17.00;75.30